sensor_id;sensor_type;location;lat;lon;timestamp;P1;durP1;ratioP1;P2;durP2;ratioP2
35909;SDS011;22004;49.120;-0.200;2022-10-28T08:02:04;26.15;;;7.85;;
35909;SDS011;22004;49.120;-0.200;2022-10-28T08:04:30;28.35;;;7.95;;
35909;SDS011;22004;49.120;-0.200;2022-10-28T08:06:56;19.45;;;8.10;;
35909;SDS011;22004;49.120;-0.200;2022-10-28T08:09:21;25.85;;;8.27;;
35909;SDS011;22004;49.120;-0.200;2022-10-28T08:11:47;22.80;;;7.72;;
35909;SDS011;22004;49.120;-0.200;2022-10-28T08:14:12;30.10;;;8.20;;
35909;SDS011;22004;49.120;-0.200;2022-10-28T08:16:38;22.10;;;7.47;;
35909;SDS011;22004;49.120;-0.200;2022-10-28T08:19:03;26.60;;;8.07;;
35909;SDS011;22004;49.120;-0.200;2022-10-28T08:21:29;31.27;;;8.20;;
35909;SDS011;22004;49.120;-0.200;2022-10-28T08:23:54;37.13;;;8.52;;
35909;SDS011;22004;49.120;-0.200;2022-10-28T08:26:19;24.55;;;7.65;;
35909;SDS011;22004;49.120;-0.200;2022-10-28T08:28:45;20.67;;;7.47;;
35909;SDS011;22004;49.120;-0.200;2022-10-28T08:31:10;30.92;;;9.00;;
35909;SDS011;22004;49.120;-0.200;2022-10-28T08:33:40;32.63;;;8.82;;
35909;SDS011;22004;49.120;-0.200;2022-10-28T08:36:08;26.90;;;8.00;;
35909;SDS011;22004;49.120;-0.200;2022-10-28T08:38:36;31.90;;;8.68;;
35909;SDS011;22004;49.120;-0.200;2022-10-28T08:46:48;33.08;;;8.88;;
35909;SDS011;22004;49.120;-0.200;2022-10-28T08:49:22;27.95;;;7.95;;
35909;SDS011;22004;49.120;-0.200;2022-10-28T08:54:46;28.60;;;8.25;;
35909;SDS011;22004;49.120;-0.200;2022-10-28T08:57:17;30.33;;;8.30;;
35909;SDS011;22004;49.120;-0.200;2022-10-28T08:59:55;30.23;;;8.80;;
35909;SDS011;22004;49.120;-0.200;2022-10-28T09:02:23;35.28;;;8.80;;
35909;SDS011;22004;49.120;-0.200;2022-10-28T09:05:01;25.60;;;8.02;;
35909;SDS011;22004;49.120;-0.200;2022-10-28T09:07:36;35.05;;;8.38;;
35909;SDS011;22004;49.120;-0.200;2022-10-28T09:10:02;29.52;;;7.68;;
35909;SDS011;22004;49.120;-0.200;2022-10-28T09:15:39;24.13;;;7.53;;
35909;SDS011;22004;49.120;-0.200;2022-10-28T09:18:16;23.80;;;7.35;;
35909;SDS011;22004;49.120;-0.200;2022-10-28T09:20:46;25.05;;;7.65;;
35909;SDS011;22004;49.120;-0.200;2022-10-28T09:31:31;25.55;;;7.10;;
35909;SDS011;22004;49.120;-0.200;2022-10-28T09:37:13;23.77;;;6.60;;
35909;SDS011;22004;49.120;-0.200;2022-10-28T09:39:49;22.30;;;5.53;;
35909;SDS011;22004;49.120;-0.200;2022-10-28T09:42:24;26.15;;;6.15;;
35909;SDS011;22004;49.120;-0.200;2022-10-28T09:45:13;26.70;;;6.13;;
35909;SDS011;22004;49.120;-0.200;2022-10-28T09:47:52;21.92;;;7.18;;
35909;SDS011;22004;49.120;-0.200;2022-10-28T09:50:23;22.25;;;5.68;;
35909;SDS011;22004;49.120;-0.200;2022-10-28T09:52:58;27.67;;;5.97;;
35909;SDS011;22004;49.120;-0.200;2022-10-28T09:55:25;29.08;;;5.88;;
35909;SDS011;22004;49.120;-0.200;2022-10-28T09:57:51;25.98;;;5.38;;
35909;SDS011;22004;49.120;-0.200;2022-10-28T10:00:16;25.15;;;5.93;;
35909;SDS011;22004;49.120;-0.200;2022-10-28T10:02:43;27.45;;;6.95;;
35909;SDS011;22004;49.120;-0.200;2022-10-28T10:05:12;18.40;;;5.72;;
35909;SDS011;22004;49.120;-0.200;2022-10-28T10:07:45;35.33;;;7.43;;
35909;SDS011;22004;49.120;-0.200;2022-10-28T10:10:16;28.08;;;6.40;;
35909;SDS011;22004;49.120;-0.200;2022-10-28T10:12:48;24.70;;;7.45;;
35909;SDS011;22004;49.120;-0.200;2022-10-28T10:15:50;28.60;;;6.95;;
35909;SDS011;22004;49.120;-0.200;2022-10-28T10:18:43;28.80;;;6.35;;
35909;SDS011;22004;49.120;-0.200;2022-10-28T10:21:06;21.13;;;5.87;;
35909;SDS011;22004;49.120;-0.200;2022-10-28T10:23:32;24.35;;;7.00;;
35909;SDS011;22004;49.120;-0.200;2022-10-28T10:26:15;27.40;;;7.75;;
35909;SDS011;22004;49.120;-0.200;2022-10-28T10:28:47;29.13;;;7.97;;
35909;SDS011;22004;49.120;-0.200;2022-10-28T10:31:22;27.52;;;7.28;;
35909;SDS011;22004;49.120;-0.200;2022-10-28T10:33:55;29.92;;;8.98;;
35909;SDS011;22004;49.120;-0.200;2022-10-28T10:36:22;20.60;;;6.82;;
35909;SDS011;22004;49.120;-0.200;2022-10-28T10:38:53;25.00;;;8.00;;
35909;SDS011;22004;49.120;-0.200;2022-10-28T10:41:33;25.83;;;6.10;;
35909;SDS011;22004;49.120;-0.200;2022-10-28T10:44:22;23.58;;;5.63;;
35909;SDS011;22004;49.120;-0.200;2022-10-28T10:49:28;24.58;;;5.15;;
35909;SDS011;22004;49.120;-0.200;2022-10-28T10:51:57;20.83;;;5.85;;
35909;SDS011;22004;49.120;-0.200;2022-10-28T10:54:29;26.95;;;5.63;;
35909;SDS011;22004;49.120;-0.200;2022-10-28T10:57:14;25.35;;;5.40;;
35909;SDS011;22004;49.120;-0.200;2022-10-28T10:59:47;21.38;;;4.93;;
35909;SDS011;22004;49.120;-0.200;2022-10-28T11:02:26;24.88;;;4.40;;
35909;SDS011;22004;49.120;-0.200;2022-10-28T11:05:06;15.63;;;5.90;;
35909;SDS011;22004;49.120;-0.200;2022-10-28T11:07:34;27.33;;;5.43;;
35909;SDS011;22004;49.120;-0.200;2022-10-28T11:10:01;19.88;;;5.18;;
35909;SDS011;22004;49.120;-0.200;2022-10-28T11:12:29;22.45;;;4.80;;
35909;SDS011;22004;49.120;-0.200;2022-10-28T11:14:59;20.73;;;5.32;;
35909;SDS011;22004;49.120;-0.200;2022-10-28T11:17:31;19.88;;;3.97;;
35909;SDS011;22004;49.120;-0.200;2022-10-28T11:19:58;20.60;;;4.20;;
35909;SDS011;22004;49.120;-0.200;2022-10-28T11:25:54;18.65;;;3.78;;
35909;SDS011;22004;49.120;-0.200;2022-10-28T11:34:06;15.65;;;3.53;;
35909;SDS011;22004;49.120;-0.200;2022-10-28T11:39:40;18.13;;;3.38;;
35909;SDS011;22004;49.120;-0.200;2022-10-28T11:45:23;15.85;;;3.10;;
35909;SDS011;22004;49.120;-0.200;2022-10-28T11:59:25;15.13;;;3.85;;
35909;SDS011;22004;49.120;-0.200;2022-10-28T12:16:45;17.15;;;3.50;;
35909;SDS011;22004;49.120;-0.200;2022-10-28T12:19:26;15.30;;;3.65;;
35909;SDS011;22004;49.120;-0.200;2022-10-28T12:24:36;21.15;;;3.60;;
35909;SDS011;22004;49.120;-0.200;2022-10-28T12:27:51;15.40;;;3.72;;
35909;SDS011;22004;49.120;-0.200;2022-10-28T12:30:02;17.33;;;4.10;;
35909;SDS011;22004;49.120;-0.200;2022-10-28T12:38:48;16.02;;;3.35;;
35909;SDS011;22004;49.120;-0.200;2022-10-28T12:41:24;15.77;;;2.65;;
35909;SDS011;22004;49.120;-0.200;2022-10-28T12:44:02;13.88;;;3.45;;
35909;SDS011;22004;49.120;-0.200;2022-10-28T12:46:49;16.48;;;3.40;;
35909;SDS011;22004;49.120;-0.200;2022-10-28T12:49:22;13.30;;;3.13;;
35909;SDS011;22004;49.120;-0.200;2022-10-28T12:51:52;18.20;;;3.30;;
35909;SDS011;22004;49.120;-0.200;2022-10-28T12:54:36;13.45;;;3.60;;
35909;SDS011;22004;49.120;-0.200;2022-10-28T12:57:30;12.85;;;3.35;;
35909;SDS011;22004;49.120;-0.200;2022-10-28T13:00:05;11.25;;;2.80;;
35909;SDS011;22004;49.120;-0.200;2022-10-28T13:05:42;15.68;;;3.10;;
35909;SDS011;22004;49.120;-0.200;2022-10-28T13:28:33;11.95;;;2.85;;
35909;SDS011;22004;49.120;-0.200;2022-10-28T13:31:06;18.00;;;3.20;;
35909;SDS011;22004;49.120;-0.200;2022-10-28T13:33:33;15.60;;;2.72;;
35909;SDS011;22004;49.120;-0.200;2022-10-28T13:36:10;11.73;;;2.78;;
35909;SDS011;22004;49.120;-0.200;2022-10-28T13:38:39;11.93;;;2.10;;
35909;SDS011;22004;49.120;-0.200;2022-10-28T13:49:32;11.13;;;2.42;;
35909;SDS011;22004;49.120;-0.200;2022-10-28T13:52:00;14.43;;;2.30;;
35909;SDS011;22004;49.120;-0.200;2022-10-28T13:57:27;16.23;;;3.20;;
35909;SDS011;22004;49.120;-0.200;2022-10-28T14:00:05;17.13;;;2.85;;
35909;SDS011;22004;49.120;-0.200;2022-10-28T14:03:00;13.57;;;2.88;;
35909;SDS011;22004;49.120;-0.200;2022-10-28T14:08:04;13.57;;;3.03;;
35909;SDS011;22004;49.120;-0.200;2022-10-28T14:10:32;12.45;;;3.45;;
35909;SDS011;22004;49.120;-0.200;2022-10-28T14:15:38;13.93;;;2.97;;
35909;SDS011;22004;49.120;-0.200;2022-10-28T14:20:40;7.95;;;2.00;;
35909;SDS011;22004;49.120;-0.200;2022-10-28T14:44:36;9.63;;;2.78;;
35909;SDS011;22004;49.120;-0.200;2022-10-28T14:50:22;15.55;;;3.28;;
35909;SDS011;22004;49.120;-0.200;2022-10-28T14:52:50;17.55;;;3.25;;
35909;SDS011;22004;49.120;-0.200;2022-10-28T14:55:26;11.73;;;3.40;;
35909;SDS011;22004;49.120;-0.200;2022-10-28T15:06:25;17.02;;;3.92;;
35909;SDS011;22004;49.120;-0.200;2022-10-28T15:08:51;10.77;;;3.00;;
35909;SDS011;22004;49.120;-0.200;2022-10-28T15:11:18;12.77;;;3.25;;
35909;SDS011;22004;49.120;-0.200;2022-10-28T15:13:46;10.23;;;2.90;;
35909;SDS011;22004;49.120;-0.200;2022-10-28T15:16:19;11.90;;;2.80;;
35909;SDS011;22004;49.120;-0.200;2022-10-28T15:18:47;12.10;;;2.63;;
35909;SDS011;22004;49.120;-0.200;2022-10-28T15:21:15;14.70;;;3.28;;
35909;SDS011;22004;49.120;-0.200;2022-10-28T15:23:41;17.70;;;3.63;;
35909;SDS011;22004;49.120;-0.200;2022-10-28T15:28:37;19.73;;;4.57;;
35909;SDS011;22004;49.120;-0.200;2022-10-28T15:31:04;17.15;;;3.45;;
35909;SDS011;22004;49.120;-0.200;2022-10-28T15:33:39;13.60;;;3.40;;
35909;SDS011;22004;49.120;-0.200;2022-10-28T15:36:16;7.63;;;3.10;;
35909;SDS011;22004;49.120;-0.200;2022-10-28T15:38:45;8.80;;;2.97;;
35909;SDS011;22004;49.120;-0.200;2022-10-28T15:41:58;14.45;;;3.30;;
35909;SDS011;22004;49.120;-0.200;2022-10-28T15:44:31;19.20;;;4.63;;
35909;SDS011;22004;49.120;-0.200;2022-10-28T15:46:55;13.70;;;3.60;;
35909;SDS011;22004;49.120;-0.200;2022-10-28T15:49:31;14.80;;;3.17;;
35909;SDS011;22004;49.120;-0.200;2022-10-28T15:54:42;17.38;;;3.70;;
35909;SDS011;22004;49.120;-0.200;2022-10-28T15:57:22;17.63;;;3.50;;
35909;SDS011;22004;49.120;-0.200;2022-10-28T16:00:01;17.08;;;3.60;;
35909;SDS011;22004;49.120;-0.200;2022-10-28T16:10:33;19.10;;;3.78;;
35909;SDS011;22004;49.120;-0.200;2022-10-28T16:13:01;14.93;;;3.40;;
35909;SDS011;22004;49.120;-0.200;2022-10-28T16:15:28;15.70;;;3.67;;
35909;SDS011;22004;49.120;-0.200;2022-10-28T16:17:54;17.70;;;3.42;;
35909;SDS011;22004;49.120;-0.200;2022-10-28T16:20:20;13.15;;;3.50;;
35909;SDS011;22004;49.120;-0.200;2022-10-28T16:22:51;15.38;;;3.60;;
35909;SDS011;22004;49.120;-0.200;2022-10-28T16:25:18;11.10;;;3.17;;
35909;SDS011;22004;49.120;-0.200;2022-10-28T16:27:45;15.35;;;4.13;;
35909;SDS011;22004;49.120;-0.200;2022-10-28T16:30:11;15.82;;;3.60;;
35909;SDS011;22004;49.120;-0.200;2022-10-28T16:35:15;15.70;;;4.03;;
35909;SDS011;22004;49.120;-0.200;2022-10-28T16:37:44;18.20;;;4.47;;
35909;SDS011;22004;49.120;-0.200;2022-10-28T16:40:11;16.77;;;3.78;;
35909;SDS011;22004;49.120;-0.200;2022-10-28T16:42:37;20.17;;;4.45;;
35909;SDS011;22004;49.120;-0.200;2022-10-28T16:45:07;14.75;;;3.63;;
35909;SDS011;22004;49.120;-0.200;2022-10-28T16:47:38;16.60;;;3.75;;
35909;SDS011;22004;49.120;-0.200;2022-10-28T16:50:03;16.23;;;4.22;;
35909;SDS011;22004;49.120;-0.200;2022-10-28T16:52:29;9.95;;;3.35;;
35909;SDS011;22004;49.120;-0.200;2022-10-28T16:54:55;14.88;;;3.90;;
35909;SDS011;22004;49.120;-0.200;2022-10-28T16:57:22;15.60;;;3.65;;
35909;SDS011;22004;49.120;-0.200;2022-10-28T16:59:48;13.77;;;3.42;;
35909;SDS011;22004;49.120;-0.200;2022-10-28T17:04:48;22.60;;;3.90;;
35909;SDS011;22004;49.120;-0.200;2022-10-28T17:07:13;14.52;;;3.67;;
35909;SDS011;22004;49.120;-0.200;2022-10-28T17:09:40;13.70;;;3.10;;
35909;SDS011;22004;49.120;-0.200;2022-10-28T17:12:08;16.15;;;3.40;;
35909;SDS011;22004;49.120;-0.200;2022-10-28T17:14:37;16.17;;;3.78;;
35909;SDS011;22004;49.120;-0.200;2022-10-28T17:17:02;12.05;;;3.45;;
35909;SDS011;22004;49.120;-0.200;2022-10-28T17:19:27;15.82;;;3.20;;
35909;SDS011;22004;49.120;-0.200;2022-10-28T17:21:53;15.02;;;3.03;;
35909;SDS011;22004;49.120;-0.200;2022-10-28T17:24:18;8.77;;;3.25;;
35909;SDS011;22004;49.120;-0.200;2022-10-28T17:26:46;20.20;;;4.03;;
35909;SDS011;22004;49.120;-0.200;2022-10-28T17:29:12;9.80;;;2.78;;
35909;SDS011;22004;49.120;-0.200;2022-10-28T17:31:37;13.13;;;3.30;;
35909;SDS011;22004;49.120;-0.200;2022-10-28T17:34:02;13.55;;;3.97;;
35909;SDS011;22004;49.120;-0.200;2022-10-28T17:36:28;16.67;;;3.47;;
35909;SDS011;22004;49.120;-0.200;2022-10-28T17:38:53;10.32;;;3.58;;
35909;SDS011;22004;49.120;-0.200;2022-10-28T17:41:18;12.80;;;3.20;;
35909;SDS011;22004;49.120;-0.200;2022-10-28T17:43:44;14.15;;;3.63;;
35909;SDS011;22004;49.120;-0.200;2022-10-28T17:46:09;10.05;;;3.55;;
35909;SDS011;22004;49.120;-0.200;2022-10-28T17:48:35;8.02;;;3.10;;
35909;SDS011;22004;49.120;-0.200;2022-10-28T17:51:00;8.55;;;3.08;;
35909;SDS011;22004;49.120;-0.200;2022-10-28T17:53:26;11.73;;;2.90;;
35909;SDS011;22004;49.120;-0.200;2022-10-28T17:55:58;14.60;;;3.80;;
35909;SDS011;22004;49.120;-0.200;2022-10-28T17:58:24;8.82;;;3.28;;
35909;SDS011;22004;49.120;-0.200;2022-10-28T18:01:11;9.27;;;2.80;;
35909;SDS011;22004;49.120;-0.200;2022-10-28T18:03:36;11.95;;;3.25;;
35909;SDS011;22004;49.120;-0.200;2022-10-28T18:06:06;7.45;;;2.42;;
35909;SDS011;22004;49.120;-0.200;2022-10-28T18:08:34;6.32;;;2.67;;
35909;SDS011;22004;49.120;-0.200;2022-10-28T18:11:01;7.68;;;2.80;;
35909;SDS011;22004;49.120;-0.200;2022-10-28T18:13:31;8.38;;;3.05;;
35909;SDS011;22004;49.120;-0.200;2022-10-28T18:18:29;9.10;;;2.78;;
35909;SDS011;22004;49.120;-0.200;2022-10-28T18:20:55;9.25;;;2.70;;
35909;SDS011;22004;49.120;-0.200;2022-10-28T18:23:21;6.82;;;2.95;;
35909;SDS011;22004;49.120;-0.200;2022-10-28T18:26:06;8.10;;;2.75;;
35909;SDS011;22004;49.120;-0.200;2022-10-28T18:28:35;5.20;;;2.25;;
35909;SDS011;22004;49.120;-0.200;2022-10-28T18:31:01;8.73;;;2.85;;
35909;SDS011;22004;49.120;-0.200;2022-10-28T18:33:29;4.68;;;2.38;;
35909;SDS011;22004;49.120;-0.200;2022-10-28T18:35:59;4.25;;;2.22;;
35909;SDS011;22004;49.120;-0.200;2022-10-28T18:38:25;7.10;;;2.67;;
35909;SDS011;22004;49.120;-0.200;2022-10-28T18:40:51;7.53;;;2.30;;
35909;SDS011;22004;49.120;-0.200;2022-10-28T18:43:16;10.63;;;2.78;;
35909;SDS011;22004;49.120;-0.200;2022-10-28T18:45:41;9.65;;;2.50;;
35909;SDS011;22004;49.120;-0.200;2022-10-28T18:48:07;8.65;;;2.78;;
35909;SDS011;22004;49.120;-0.200;2022-10-28T18:50:32;10.63;;;2.92;;
35909;SDS011;22004;49.120;-0.200;2022-10-28T18:52:58;8.68;;;2.80;;
35909;SDS011;22004;49.120;-0.200;2022-10-28T18:55:24;14.25;;;3.45;;
35909;SDS011;22004;49.120;-0.200;2022-10-28T18:57:50;13.48;;;3.42;;
35909;SDS011;22004;49.120;-0.200;2022-10-28T19:00:15;7.68;;;2.70;;
35909;SDS011;22004;49.120;-0.200;2022-10-28T19:02:41;6.97;;;2.80;;
35909;SDS011;22004;49.120;-0.200;2022-10-28T19:05:07;6.18;;;2.75;;
35909;SDS011;22004;49.120;-0.200;2022-10-28T19:07:33;5.97;;;2.72;;
35909;SDS011;22004;49.120;-0.200;2022-10-28T19:09:58;7.93;;;2.50;;
35909;SDS011;22004;49.120;-0.200;2022-10-28T19:12:23;9.85;;;3.20;;
35909;SDS011;22004;49.120;-0.200;2022-10-28T19:14:49;9.68;;;2.97;;
35909;SDS011;22004;49.120;-0.200;2022-10-28T19:17:14;6.10;;;2.60;;
35909;SDS011;22004;49.120;-0.200;2022-10-28T19:19:40;7.68;;;2.50;;
35909;SDS011;22004;49.120;-0.200;2022-10-28T19:22:05;5.90;;;2.67;;
35909;SDS011;22004;49.120;-0.200;2022-10-28T19:24:32;8.35;;;2.90;;
35909;SDS011;22004;49.120;-0.200;2022-10-28T19:26:58;7.28;;;2.60;;
35909;SDS011;22004;49.120;-0.200;2022-10-28T19:29:23;9.23;;;2.95;;
35909;SDS011;22004;49.120;-0.200;2022-10-28T19:31:48;13.20;;;3.83;;
35909;SDS011;22004;49.120;-0.200;2022-10-28T19:34:14;5.32;;;2.90;;
35909;SDS011;22004;49.120;-0.200;2022-10-28T19:36:39;8.68;;;2.95;;
35909;SDS011;22004;49.120;-0.200;2022-10-28T19:39:05;9.40;;;3.20;;
35909;SDS011;22004;49.120;-0.200;2022-10-28T19:41:30;6.70;;;2.53;;
35909;SDS011;22004;49.120;-0.200;2022-10-28T19:43:59;5.15;;;2.40;;
35909;SDS011;22004;49.120;-0.200;2022-10-28T19:46:26;8.27;;;3.05;;
35909;SDS011;22004;49.120;-0.200;2022-10-28T19:48:54;6.97;;;2.78;;
35909;SDS011;22004;49.120;-0.200;2022-10-28T19:51:22;7.05;;;2.85;;
35909;SDS011;22004;49.120;-0.200;2022-10-28T19:53:55;5.10;;;2.35;;
35909;SDS011;22004;49.120;-0.200;2022-10-28T19:56:21;8.65;;;3.40;;
35909;SDS011;22004;49.120;-0.200;2022-10-28T19:58:49;9.68;;;3.03;;
35909;SDS011;22004;49.120;-0.200;2022-10-28T20:01:17;6.28;;;2.50;;
35909;SDS011;22004;49.120;-0.200;2022-10-28T20:03:44;9.10;;;3.25;;
35909;SDS011;22004;49.120;-0.200;2022-10-28T20:06:10;6.88;;;3.17;;
35909;SDS011;22004;49.120;-0.200;2022-10-28T20:08:38;9.27;;;3.30;;
35909;SDS011;22004;49.120;-0.200;2022-10-28T20:11:08;5.63;;;3.17;;
35909;SDS011;22004;49.120;-0.200;2022-10-28T20:13:37;9.23;;;3.50;;
35909;SDS011;22004;49.120;-0.200;2022-10-28T20:16:04;9.90;;;3.28;;
35909;SDS011;22004;49.120;-0.200;2022-10-28T20:18:32;10.63;;;3.67;;
35909;SDS011;22004;49.120;-0.200;2022-10-28T20:21:11;5.00;;;2.88;;
35909;SDS011;22004;49.120;-0.200;2022-10-28T20:23:38;7.25;;;2.90;;
35909;SDS011;22004;49.120;-0.200;2022-10-28T20:26:04;9.98;;;3.80;;
35909;SDS011;22004;49.120;-0.200;2022-10-28T20:28:30;6.28;;;2.88;;
35909;SDS011;22004;49.120;-0.200;2022-10-28T20:31:00;7.55;;;2.80;;
35909;SDS011;22004;49.120;-0.200;2022-10-28T20:33:27;6.93;;;3.10;;
35909;SDS011;22004;49.120;-0.200;2022-10-28T20:35:54;6.35;;;3.05;;
35909;SDS011;22004;49.120;-0.200;2022-10-28T20:38:20;9.75;;;3.25;;
35909;SDS011;22004;49.120;-0.200;2022-10-28T20:40:49;8.85;;;2.88;;
35909;SDS011;22004;49.120;-0.200;2022-10-28T20:43:17;8.75;;;2.90;;
35909;SDS011;22004;49.120;-0.200;2022-10-28T20:45:49;7.25;;;2.83;;
35909;SDS011;22004;49.120;-0.200;2022-10-28T20:48:18;7.38;;;3.20;;
35909;SDS011;22004;49.120;-0.200;2022-10-28T20:50:54;8.38;;;2.75;;
35909;SDS011;22004;49.120;-0.200;2022-10-28T20:53:24;6.20;;;3.03;;
35909;SDS011;22004;49.120;-0.200;2022-10-28T20:55:52;5.63;;;2.83;;
35909;SDS011;22004;49.120;-0.200;2022-10-28T20:58:19;9.95;;;3.83;;
35909;SDS011;22004;49.120;-0.200;2022-10-28T21:00:48;5.38;;;2.67;;
35909;SDS011;22004;49.120;-0.200;2022-10-28T21:03:14;7.72;;;2.85;;
35909;SDS011;22004;49.120;-0.200;2022-10-28T21:05:40;9.05;;;2.97;;
35909;SDS011;22004;49.120;-0.200;2022-10-28T21:08:07;10.80;;;3.03;;
35909;SDS011;22004;49.120;-0.200;2022-10-28T21:10:33;6.32;;;3.28;;
35909;SDS011;22004;49.120;-0.200;2022-10-28T21:12:59;8.93;;;3.28;;
35909;SDS011;22004;49.120;-0.200;2022-10-28T21:15:24;13.55;;;3.50;;
35909;SDS011;22004;49.120;-0.200;2022-10-28T21:17:50;10.15;;;3.30;;
35909;SDS011;22004;49.120;-0.200;2022-10-28T21:20:15;5.25;;;2.47;;
35909;SDS011;22004;49.120;-0.200;2022-10-28T21:22:41;10.02;;;3.05;;
35909;SDS011;22004;49.120;-0.200;2022-10-28T21:25:07;13.27;;;3.20;;
35909;SDS011;22004;49.120;-0.200;2022-10-28T21:27:32;10.65;;;3.60;;
35909;SDS011;22004;49.120;-0.200;2022-10-28T21:29:58;5.80;;;2.90;;
35909;SDS011;22004;49.120;-0.200;2022-10-28T21:32:24;12.00;;;3.17;;
35909;SDS011;22004;49.120;-0.200;2022-10-28T21:34:50;6.03;;;2.95;;
35909;SDS011;22004;49.120;-0.200;2022-10-28T21:37:15;11.55;;;3.20;;
35909;SDS011;22004;49.120;-0.200;2022-10-28T21:39:41;6.85;;;3.00;;
35909;SDS011;22004;49.120;-0.200;2022-10-28T21:42:07;10.10;;;3.22;;
35909;SDS011;22004;49.120;-0.200;2022-10-28T21:44:32;6.35;;;2.70;;
35909;SDS011;22004;49.120;-0.200;2022-10-28T21:46:57;6.60;;;2.90;;
35909;SDS011;22004;49.120;-0.200;2022-10-28T21:49:28;13.65;;;3.58;;
35909;SDS011;22004;49.120;-0.200;2022-10-28T21:51:53;8.45;;;3.05;;
35909;SDS011;22004;49.120;-0.200;2022-10-28T21:54:19;15.18;;;3.83;;
35909;SDS011;22004;49.120;-0.200;2022-10-28T21:56:44;8.40;;;3.55;;
35909;SDS011;22004;49.120;-0.200;2022-10-28T21:59:09;11.00;;;3.88;;
35909;SDS011;22004;49.120;-0.200;2022-10-28T22:01:37;15.80;;;3.67;;
35909;SDS011;22004;49.120;-0.200;2022-10-28T22:04:02;13.23;;;4.53;;
35909;SDS011;22004;49.120;-0.200;2022-10-28T22:06:28;16.08;;;4.22;;
35909;SDS011;22004;49.120;-0.200;2022-10-28T22:08:53;13.88;;;3.65;;
35909;SDS011;22004;49.120;-0.200;2022-10-28T22:11:20;10.15;;;3.40;;
35909;SDS011;22004;49.120;-0.200;2022-10-28T22:13:47;11.32;;;3.55;;
35909;SDS011;22004;49.120;-0.200;2022-10-28T22:16:19;10.23;;;3.33;;
35909;SDS011;22004;49.120;-0.200;2022-10-28T22:18:44;11.93;;;4.05;;
35909;SDS011;22004;49.120;-0.200;2022-10-28T22:21:13;14.43;;;4.03;;
35909;SDS011;22004;49.120;-0.200;2022-10-28T22:23:41;18.35;;;4.25;;
35909;SDS011;22004;49.120;-0.200;2022-10-28T22:26:08;11.05;;;3.55;;
35909;SDS011;22004;49.120;-0.200;2022-10-28T22:28:35;10.93;;;3.80;;
35909;SDS011;22004;49.120;-0.200;2022-10-28T22:31:02;11.40;;;3.92;;
35909;SDS011;22004;49.120;-0.200;2022-10-28T22:33:31;9.85;;;3.10;;
35909;SDS011;22004;49.120;-0.200;2022-10-28T22:35:57;19.48;;;5.10;;
35909;SDS011;22004;49.120;-0.200;2022-10-28T22:38:28;10.05;;;3.67;;
35909;SDS011;22004;49.120;-0.200;2022-10-28T22:43:37;9.80;;;3.50;;
